sensor_id;sensor_type;location;lat;lon;timestamp;pressure;altitude;pressure_sealevel;temperature
68440;BMP180;55421;51.600;5.718;2022-07-05T00:01:22;82479.80;;;17.18
68440;BMP180;55421;51.600;5.718;2022-07-05T00:03:49;81670.40;;;17.06
68440;BMP180;55421;51.600;5.718;2022-07-05T00:06:15;79830.20;;;17.00
68440;BMP180;55421;51.600;5.718;2022-07-05T00:08:41;81323.40;;;17.02
68440;BMP180;55421;51.600;5.718;2022-07-05T00:11:08;81171.00;;;17.00
68440;BMP180;55421;51.600;5.718;2022-07-05T00:13:34;80842.20;;;16.90
68440;BMP180;55421;51.600;5.718;2022-07-05T00:16:01;80002.60;;;16.90
68440;BMP180;55421;51.600;5.718;2022-07-05T00:18:27;81861.20;;;16.82
68440;BMP180;55421;51.600;5.718;2022-07-05T00:20:54;81264.20;;;16.80
68440;BMP180;55421;51.600;5.718;2022-07-05T00:23:20;80817.60;;;16.84
68440;BMP180;55421;51.600;5.718;2022-07-05T00:25:47;81313.40;;;16.80
68440;BMP180;55421;51.600;5.718;2022-07-05T00:28:13;80745.20;;;16.80
68440;BMP180;55421;51.600;5.718;2022-07-05T00:30:41;81871.20;;;16.80
68440;BMP180;55421;51.600;5.718;2022-07-05T00:33:08;81298.80;;;16.70
68440;BMP180;55421;51.600;5.718;2022-07-05T00:35:34;82810.80;;;16.70
68440;BMP180;55421;51.600;5.718;2022-07-05T00:38:01;81287.20;;;16.60
68440;BMP180;55421;51.600;5.718;2022-07-05T00:40:27;79773.00;;;16.60
68440;BMP180;55421;51.600;5.718;2022-07-05T00:42:54;80827.20;;;16.60
68440;BMP180;55421;51.600;5.718;2022-07-05T00:45:20;79270.40;;;16.48
68440;BMP180;55421;51.600;5.718;2022-07-05T00:47:47;78526.80;;;16.40
68440;BMP180;55421;51.600;5.718;2022-07-05T00:50:14;79607.00;;;16.30
68440;BMP180;55421;51.600;5.718;2022-07-05T00:52:41;80201.60;;;16.20
68440;BMP180;55421;51.600;5.718;2022-07-05T00:55:09;79815.60;;;16.10
68440;BMP180;55421;51.600;5.718;2022-07-05T00:57:36;80187.40;;;16.10
68440;BMP180;55421;51.600;5.718;2022-07-05T01:00:04;79220.00;;;16.10
68440;BMP180;55421;51.600;5.718;2022-07-05T01:02:31;78391.60;;;16.12
68440;BMP180;55421;51.600;5.718;2022-07-05T01:04:58;78732.80;;;16.20
68440;BMP180;55421;51.600;5.718;2022-07-05T01:07:24;79417.40;;;16.20
68440;BMP180;55421;51.600;5.718;2022-07-05T01:09:52;79253.40;;;16.20
68440;BMP180;55421;51.600;5.718;2022-07-05T01:12:18;78678.00;;;16.20
68440;BMP180;55421;51.600;5.718;2022-07-05T01:14:45;78669.60;;;16.10
68440;BMP180;55421;51.600;5.718;2022-07-05T01:17:12;79866.60;;;16.00
68440;BMP180;55421;51.600;5.718;2022-07-05T01:19:39;79240.60;;;15.90
68440;BMP180;55421;51.600;5.718;2022-07-05T01:22:18;80431.00;;;15.94
68440;BMP180;55421;51.600;5.718;2022-07-05T01:24:50;79569.80;;;15.82
68440;BMP180;55421;51.600;5.718;2022-07-05T01:27:19;79696.00;;;15.72
68440;BMP180;55421;51.600;5.718;2022-07-05T01:29:45;80476.00;;;15.70
68440;BMP180;55421;51.600;5.718;2022-07-05T01:32:13;79033.60;;;15.68
68440;BMP180;55421;51.600;5.718;2022-07-05T01:34:41;78888.80;;;15.62
68440;BMP180;55421;51.600;5.718;2022-07-05T01:37:08;79369.80;;;15.70
68440;BMP180;55421;51.600;5.718;2022-07-05T01:39:36;78336.60;;;15.70
68440;BMP180;55421;51.600;5.718;2022-07-05T01:42:04;78790.80;;;15.70
68440;BMP180;55421;51.600;5.718;2022-07-05T01:44:30;79325.00;;;15.68
68440;BMP180;55421;51.600;5.718;2022-07-05T01:47:04;80704.40;;;15.70
68440;BMP180;55421;51.600;5.718;2022-07-05T01:49:36;81247.60;;;15.60
68440;BMP180;55421;51.600;5.718;2022-07-05T01:52:10;81622.40;;;15.50
68440;BMP180;55421;51.600;5.718;2022-07-05T01:54:38;81322.00;;;15.44
68440;BMP180;55421;51.600;5.718;2022-07-05T01:57:07;79615.20;;;15.40
68440;BMP180;55421;51.600;5.718;2022-07-05T01:59:35;79265.40;;;15.40
68440;BMP180;55421;51.600;5.718;2022-07-05T02:02:07;78452.00;;;15.40
68440;BMP180;55421;51.600;5.718;2022-07-05T02:04:36;77844.00;;;15.40
68440;BMP180;55421;51.600;5.718;2022-07-05T02:07:07;77599.80;;;15.34
68440;BMP180;55421;51.600;5.718;2022-07-05T02:09:35;79515.00;;;15.42
68440;BMP180;55421;51.600;5.718;2022-07-05T02:12:04;79195.80;;;15.46
68440;BMP180;55421;51.600;5.718;2022-07-05T02:14:31;78118.00;;;15.48
68440;BMP180;55421;51.600;5.718;2022-07-05T02:16:58;78506.20;;;15.44
68440;BMP180;55421;51.600;5.718;2022-07-05T02:19:24;78361.00;;;15.40
68440;BMP180;55421;51.600;5.718;2022-07-05T02:21:51;78812.60;;;15.38
68440;BMP180;55421;51.600;5.718;2022-07-05T02:24:17;78641.80;;;15.38
68440;BMP180;55421;51.600;5.718;2022-07-05T02:26:44;78537.80;;;15.36
68440;BMP180;55421;51.600;5.718;2022-07-05T02:29:10;78764.00;;;15.30
68440;BMP180;55421;51.600;5.718;2022-07-05T02:31:36;79142.60;;;15.28
68440;BMP180;55421;51.600;5.718;2022-07-05T02:34:03;80024.40;;;15.20
68440;BMP180;55421;51.600;5.718;2022-07-05T02:36:29;80125.00;;;15.20
68440;BMP180;55421;51.600;5.718;2022-07-05T02:38:56;80586.00;;;15.20
68440;BMP180;55421;51.600;5.718;2022-07-05T02:41:22;79222.80;;;15.20
68440;BMP180;55421;51.600;5.718;2022-07-05T02:43:49;80654.20;;;15.20
68440;BMP180;55421;51.600;5.718;2022-07-05T02:46:15;80178.80;;;15.20
68440;BMP180;55421;51.600;5.718;2022-07-05T02:48:41;78594.40;;;15.10
68440;BMP180;55421;51.600;5.718;2022-07-05T02:51:08;78035.60;;;15.08
68440;BMP180;55421;51.600;5.718;2022-07-05T02:53:34;79600.00;;;15.10
68440;BMP180;55421;51.600;5.718;2022-07-05T02:56:02;79914.80;;;15.10
68440;BMP180;55421;51.600;5.718;2022-07-05T02:58:28;81802.00;;;15.10
68440;BMP180;55421;51.600;5.718;2022-07-05T03:00:55;79965.80;;;15.10
68440;BMP180;55421;51.600;5.718;2022-07-05T03:03:21;79144.40;;;15.10
68440;BMP180;55421;51.600;5.718;2022-07-05T03:05:48;77764.20;;;14.94
68440;BMP180;55421;51.600;5.718;2022-07-05T03:08:14;76675.60;;;14.90
68440;BMP180;55421;51.600;5.718;2022-07-05T03:10:41;76816.80;;;14.90
68440;BMP180;55421;51.600;5.718;2022-07-05T03:13:07;75636.60;;;14.90
68440;BMP180;55421;51.600;5.718;2022-07-05T03:15:34;78108.80;;;14.90
68440;BMP180;55421;51.600;5.718;2022-07-05T03:18:00;78233.20;;;14.90
68440;BMP180;55421;51.600;5.718;2022-07-05T03:20:27;77541.40;;;14.80
68440;BMP180;55421;51.600;5.718;2022-07-05T03:22:53;75031.40;;;14.80
68440;BMP180;55421;51.600;5.718;2022-07-05T03:25:20;74269.40;;;14.70
68440;BMP180;55421;51.600;5.718;2022-07-05T03:27:47;74579.20;;;14.60
68440;BMP180;55421;51.600;5.718;2022-07-05T03:30:13;76413.20;;;14.50
68440;BMP180;55421;51.600;5.718;2022-07-05T03:32:40;75896.40;;;14.50
68440;BMP180;55421;51.600;5.718;2022-07-05T03:35:07;76892.60;;;14.50
68440;BMP180;55421;51.600;5.718;2022-07-05T03:37:34;76091.60;;;14.54
68440;BMP180;55421;51.600;5.718;2022-07-05T03:40:00;77282.40;;;14.56
68440;BMP180;55421;51.600;5.718;2022-07-05T03:42:27;75025.00;;;14.50
68440;BMP180;55421;51.600;5.718;2022-07-05T03:44:53;75526.60;;;14.50
68440;BMP180;55421;51.600;5.718;2022-07-05T03:47:20;74287.20;;;14.50
68440;BMP180;55421;51.600;5.718;2022-07-05T03:49:47;73137.00;;;14.50
68440;BMP180;55421;51.600;5.718;2022-07-05T03:52:13;73468.60;;;14.50
68440;BMP180;55421;51.600;5.718;2022-07-05T03:54:40;73670.60;;;14.50
68440;BMP180;55421;51.600;5.718;2022-07-05T03:57:06;75149.20;;;14.50
68440;BMP180;55421;51.600;5.718;2022-07-05T03:59:33;73070.60;;;14.56
68440;BMP180;55421;51.600;5.718;2022-07-05T04:01:59;74878.00;;;14.60
68440;BMP180;55421;51.600;5.718;2022-07-05T04:04:25;75448.80;;;14.76
68440;BMP180;55421;51.600;5.718;2022-07-05T04:06:52;77220.60;;;14.86
68440;BMP180;55421;51.600;5.718;2022-07-05T04:09:18;74262.00;;;14.90
68440;BMP180;55421;51.600;5.718;2022-07-05T04:11:45;75455.40;;;15.00
68440;BMP180;55421;51.600;5.718;2022-07-05T04:14:11;73964.80;;;15.00
68440;BMP180;55421;51.600;5.718;2022-07-05T04:16:38;74285.40;;;15.06
68440;BMP180;55421;51.600;5.718;2022-07-05T04:19:04;73373.60;;;15.10
68440;BMP180;55421;51.600;5.718;2022-07-05T04:21:31;73306.60;;;15.12
68440;BMP180;55421;51.600;5.718;2022-07-05T04:23:57;73019.40;;;15.20
68440;BMP180;55421;51.600;5.718;2022-07-05T04:26:24;73834.20;;;15.20
68440;BMP180;55421;51.600;5.718;2022-07-05T04:28:50;74070.20;;;15.30
68440;BMP180;55421;51.600;5.718;2022-07-05T04:31:16;72268.80;;;15.30
68440;BMP180;55421;51.600;5.718;2022-07-05T04:33:43;70763.40;;;15.40
68440;BMP180;55421;51.600;5.718;2022-07-05T04:36:09;73680.60;;;15.50
68440;BMP180;55421;51.600;5.718;2022-07-05T04:38:36;71773.00;;;15.50
68440;BMP180;55421;51.600;5.718;2022-07-05T04:41:02;73538.00;;;15.60
68440;BMP180;55421;51.600;5.718;2022-07-05T04:43:29;73333.60;;;15.70
68440;BMP180;55421;51.600;5.718;2022-07-05T04:45:55;72831.40;;;15.80
68440;BMP180;55421;51.600;5.718;2022-07-05T04:48:22;73616.40;;;15.80
68440;BMP180;55421;51.600;5.718;2022-07-05T04:50:48;71093.80;;;15.80
68440;BMP180;55421;51.600;5.718;2022-07-05T04:53:14;70675.00;;;15.80
68440;BMP180;55421;51.600;5.718;2022-07-05T04:55:41;70579.40;;;15.90
68440;BMP180;55421;51.600;5.718;2022-07-05T04:58:07;71915.80;;;15.92
68440;BMP180;55421;51.600;5.718;2022-07-05T05:00:34;71949.40;;;15.90
68440;BMP180;55421;51.600;5.718;2022-07-05T05:03:00;70677.00;;;15.96
68440;BMP180;55421;51.600;5.718;2022-07-05T05:05:27;70590.00;;;16.00
68440;BMP180;55421;51.600;5.718;2022-07-05T05:07:53;70340.80;;;16.10
68440;BMP180;55421;51.600;5.718;2022-07-05T05:10:20;69810.60;;;16.30
68440;BMP180;55421;51.600;5.718;2022-07-05T05:12:47;71425.00;;;16.30
68440;BMP180;55421;51.600;5.718;2022-07-05T05:15:13;71365.20;;;16.40
68440;BMP180;55421;51.600;5.718;2022-07-05T05:17:42;70259.00;;;16.50
68440;BMP180;55421;51.600;5.718;2022-07-05T05:20:17;72745.80;;;16.54
68440;BMP180;55421;51.600;5.718;2022-07-05T05:22:45;71864.80;;;16.66
68440;BMP180;55421;51.600;5.718;2022-07-05T05:25:13;69801.40;;;16.70
68440;BMP180;55421;51.600;5.718;2022-07-05T05:27:48;71222.60;;;16.70
68440;BMP180;55421;51.600;5.718;2022-07-05T05:30:18;70425.60;;;16.70
68440;BMP180;55421;51.600;5.718;2022-07-05T05:32:45;68924.40;;;16.70
68440;BMP180;55421;51.600;5.718;2022-07-05T05:35:11;69261.40;;;16.60
68440;BMP180;55421;51.600;5.718;2022-07-05T05:37:52;70244.60;;;16.70
68440;BMP180;55421;51.600;5.718;2022-07-05T05:40:21;68677.60;;;16.80
68440;BMP180;55421;51.600;5.718;2022-07-05T05:42:49;72392.60;;;16.86
68440;BMP180;55421;51.600;5.718;2022-07-05T05:45:17;69881.60;;;16.94
68440;BMP180;55421;51.600;5.718;2022-07-05T05:47:50;73034.80;;;17.00
68440;BMP180;55421;51.600;5.718;2022-07-05T05:50:40;72188.20;;;17.10
68440;BMP180;55421;51.600;5.718;2022-07-05T05:53:08;71212.00;;;17.20
68440;BMP180;55421;51.600;5.718;2022-07-05T05:55:34;71010.00;;;17.28
68440;BMP180;55421;51.600;5.718;2022-07-05T05:58:21;70575.80;;;17.30
68440;BMP180;55421;51.600;5.718;2022-07-05T06:00:50;73401.60;;;17.40
68440;BMP180;55421;51.600;5.718;2022-07-05T06:03:25;71433.80;;;17.40
68440;BMP180;55421;51.600;5.718;2022-07-05T06:05:52;71371.20;;;17.42
68440;BMP180;55421;51.600;5.718;2022-07-05T06:08:20;71335.60;;;17.50
68440;BMP180;55421;51.600;5.718;2022-07-05T06:10:46;70318.20;;;17.50
68440;BMP180;55421;51.600;5.718;2022-07-05T06:13:14;70575.60;;;17.50
68440;BMP180;55421;51.600;5.718;2022-07-05T06:15:42;69523.80;;;17.60
68440;BMP180;55421;51.600;5.718;2022-07-05T06:18:11;70903.40;;;17.70
68440;BMP180;55421;51.600;5.718;2022-07-05T06:20:39;69438.80;;;17.70
68440;BMP180;55421;51.600;5.718;2022-07-05T06:23:07;68915.60;;;17.90
68440;BMP180;55421;51.600;5.718;2022-07-05T06:25:34;70018.80;;;18.00
68440;BMP180;55421;51.600;5.718;2022-07-05T06:28:07;69264.40;;;18.00
68440;BMP180;55421;51.600;5.718;2022-07-05T06:30:36;70063.00;;;18.10
68440;BMP180;55421;51.600;5.718;2022-07-05T06:33:05;70325.20;;;18.10
68440;BMP180;55421;51.600;5.718;2022-07-05T06:35:33;70216.00;;;18.20
68440;BMP180;55421;51.600;5.718;2022-07-05T06:38:07;69870.60;;;18.30
68440;BMP180;55421;51.600;5.718;2022-07-05T06:40:40;70679.20;;;18.30
68440;BMP180;55421;51.600;5.718;2022-07-05T06:43:13;69889.80;;;18.40
68440;BMP180;55421;51.600;5.718;2022-07-05T06:45:40;69148.40;;;18.40
68440;BMP180;55421;51.600;5.718;2022-07-05T06:48:10;70497.60;;;18.40
68440;BMP180;55421;51.600;5.718;2022-07-05T06:50:39;69426.00;;;18.50
68440;BMP180;55421;51.600;5.718;2022-07-05T06:53:07;68787.40;;;18.60
68440;BMP180;55421;51.600;5.718;2022-07-05T06:55:34;69472.80;;;18.80
68440;BMP180;55421;51.600;5.718;2022-07-05T06:58:04;68939.60;;;18.90
68440;BMP180;55421;51.600;5.718;2022-07-05T07:00:31;69720.00;;;19.10
68440;BMP180;55421;51.600;5.718;2022-07-05T07:02:58;70264.40;;;19.28
68440;BMP180;55421;51.600;5.718;2022-07-05T07:05:25;69151.80;;;19.40
68440;BMP180;55421;51.600;5.718;2022-07-05T07:07:52;70720.20;;;19.42
68440;BMP180;55421;51.600;5.718;2022-07-05T07:10:37;71381.80;;;19.50
68440;BMP180;55421;51.600;5.718;2022-07-05T07:13:05;70430.80;;;19.60
68440;BMP180;55421;51.600;5.718;2022-07-05T07:15:31;70371.40;;;19.60
68440;BMP180;55421;51.600;5.718;2022-07-05T07:18:00;70464.60;;;19.70
68440;BMP180;55421;51.600;5.718;2022-07-05T07:20:27;70215.00;;;19.80
68440;BMP180;55421;51.600;5.718;2022-07-05T07:22:54;69408.20;;;20.00
68440;BMP180;55421;51.600;5.718;2022-07-05T07:25:20;71937.20;;;20.20
68440;BMP180;55421;51.600;5.718;2022-07-05T07:27:52;72526.60;;;20.38
68440;BMP180;55421;51.600;5.718;2022-07-05T07:30:23;72739.20;;;20.48
68440;BMP180;55421;51.600;5.718;2022-07-05T07:32:50;72889.80;;;20.50
68440;BMP180;55421;51.600;5.718;2022-07-05T07:35:16;71946.80;;;20.70
68440;BMP180;55421;51.600;5.718;2022-07-05T07:37:43;72771.60;;;20.70
68440;BMP180;55421;51.600;5.718;2022-07-05T07:40:10;73829.60;;;20.62
68440;BMP180;55421;51.600;5.718;2022-07-05T07:42:36;73613.40;;;20.60
68440;BMP180;55421;51.600;5.718;2022-07-05T07:45:04;72737.20;;;20.60
68440;BMP180;55421;51.600;5.718;2022-07-05T07:47:32;72825.80;;;20.70
68440;BMP180;55421;51.600;5.718;2022-07-05T07:50:00;72226.80;;;20.70
68440;BMP180;55421;51.600;5.718;2022-07-05T07:52:27;71809.80;;;20.70
68440;BMP180;55421;51.600;5.718;2022-07-05T07:54:53;72614.60;;;20.70
68440;BMP180;55421;51.600;5.718;2022-07-05T07:57:20;73152.60;;;20.80
68440;BMP180;55421;51.600;5.718;2022-07-05T07:59:47;73900.20;;;20.84
68440;BMP180;55421;51.600;5.718;2022-07-05T08:02:14;73290.60;;;21.00
68440;BMP180;55421;51.600;5.718;2022-07-05T08:04:40;74548.40;;;21.10
68440;BMP180;55421;51.600;5.718;2022-07-05T08:07:07;74264.20;;;21.20
68440;BMP180;55421;51.600;5.718;2022-07-05T08:09:33;74090.60;;;21.10
68440;BMP180;55421;51.600;5.718;2022-07-05T08:12:00;73554.40;;;21.26
68440;BMP180;55421;51.600;5.718;2022-07-05T08:14:26;72118.40;;;21.30
68440;BMP180;55421;51.600;5.718;2022-07-05T08:16:53;73373.80;;;21.30
68440;BMP180;55421;51.600;5.718;2022-07-05T08:19:20;73177.40;;;21.50
68440;BMP180;55421;51.600;5.718;2022-07-05T08:22:06;73751.40;;;21.60
68440;BMP180;55421;51.600;5.718;2022-07-05T08:24:37;73412.60;;;21.60
68440;BMP180;55421;51.600;5.718;2022-07-05T08:27:04;74575.80;;;21.60
68440;BMP180;55421;51.600;5.718;2022-07-05T08:29:31;73658.60;;;21.70
68440;BMP180;55421;51.600;5.718;2022-07-05T08:31:57;73834.00;;;21.80
68440;BMP180;55421;51.600;5.718;2022-07-05T08:34:24;75238.00;;;21.88
68440;BMP180;55421;51.600;5.718;2022-07-05T08:36:50;73969.60;;;22.00
68440;BMP180;55421;51.600;5.718;2022-07-05T08:39:17;73246.00;;;22.10
68440;BMP180;55421;51.600;5.718;2022-07-05T08:41:49;73967.00;;;22.10
68440;BMP180;55421;51.600;5.718;2022-07-05T08:44:20;74697.60;;;22.14
68440;BMP180;55421;51.600;5.718;2022-07-05T08:46:50;74597.40;;;22.30
68440;BMP180;55421;51.600;5.718;2022-07-05T08:49:24;75218.80;;;22.46
68440;BMP180;55421;51.600;5.718;2022-07-05T08:51:52;74513.40;;;22.50
68440;BMP180;55421;51.600;5.718;2022-07-05T08:54:22;75719.00;;;22.50
68440;BMP180;55421;51.600;5.718;2022-07-05T08:56:51;76875.40;;;22.40
68440;BMP180;55421;51.600;5.718;2022-07-05T08:59:18;76089.40;;;22.38
68440;BMP180;55421;51.600;5.718;2022-07-05T09:01:45;76093.20;;;22.30
68440;BMP180;55421;51.600;5.718;2022-07-05T09:04:13;75253.80;;;22.48
68440;BMP180;55421;51.600;5.718;2022-07-05T09:06:47;76469.80;;;22.80
68440;BMP180;55421;51.600;5.718;2022-07-05T09:09:18;75076.80;;;23.00
68440;BMP180;55421;51.600;5.718;2022-07-05T09:11:46;76287.80;;;23.00
68440;BMP180;55421;51.600;5.718;2022-07-05T09:14:22;76428.00;;;23.00
68440;BMP180;55421;51.600;5.718;2022-07-05T09:16:50;75570.20;;;23.10
68440;BMP180;55421;51.600;5.718;2022-07-05T09:19:16;74293.40;;;23.30
68440;BMP180;55421;51.600;5.718;2022-07-05T09:21:43;73969.60;;;23.40
68440;BMP180;55421;51.600;5.718;2022-07-05T09:24:12;76016.00;;;23.40
68440;BMP180;55421;51.600;5.718;2022-07-05T09:26:47;77773.80;;;23.20
68440;BMP180;55421;51.600;5.718;2022-07-05T09:29:20;76903.40;;;23.30
68440;BMP180;55421;51.600;5.718;2022-07-05T09:31:49;77693.80;;;23.20
68440;BMP180;55421;51.600;5.718;2022-07-05T09:34:18;76840.60;;;23.20
68440;BMP180;55421;51.600;5.718;2022-07-05T09:39:38;77981.40;;;22.90
68440;BMP180;55421;51.600;5.718;2022-07-05T09:44:57;77970.60;;;22.98
68440;BMP180;55421;51.600;5.718;2022-07-05T09:47:28;77534.80;;;23.20
68440;BMP180;55421;51.600;5.718;2022-07-05T09:49:59;77698.80;;;23.20
68440;BMP180;55421;51.600;5.718;2022-07-05T09:57:42;77864.40;;;23.60
68440;BMP180;55421;51.600;5.718;2022-07-05T10:02:53;77502.80;;;23.78
68440;BMP180;55421;51.600;5.718;2022-07-05T10:05:26;77688.80;;;24.00
68440;BMP180;55421;51.600;5.718;2022-07-05T10:08:01;77209.00;;;24.20
68440;BMP180;55421;51.600;5.718;2022-07-05T10:10:30;78995.60;;;24.50
68440;BMP180;55421;51.600;5.718;2022-07-05T10:13:02;79554.60;;;24.60
68440;BMP180;55421;51.600;5.718;2022-07-05T10:15:33;80733.60;;;24.60
68440;BMP180;55421;51.600;5.718;2022-07-05T10:18:12;79725.40;;;24.60
68440;BMP180;55421;51.600;5.718;2022-07-05T10:20:43;79599.00;;;24.80
68440;BMP180;55421;51.600;5.718;2022-07-05T10:23:14;81172.60;;;24.70
68440;BMP180;55421;51.600;5.718;2022-07-05T10:25:45;80844.20;;;24.64
68440;BMP180;55421;51.600;5.718;2022-07-05T10:28:17;80767.00;;;24.60
68440;BMP180;55421;51.600;5.718;2022-07-05T10:30:46;80519.20;;;24.72
68440;BMP180;55421;51.600;5.718;2022-07-05T10:33:13;80357.40;;;25.00
68440;BMP180;55421;51.600;5.718;2022-07-05T10:35:43;81176.40;;;24.90
68440;BMP180;55421;51.600;5.718;2022-07-05T10:38:10;81565.20;;;24.68
68440;BMP180;55421;51.600;5.718;2022-07-05T10:40:40;80246.80;;;24.50
68440;BMP180;55421;51.600;5.718;2022-07-05T10:43:09;81029.40;;;24.36
68440;BMP180;55421;51.600;5.718;2022-07-05T10:45:39;82143.40;;;24.40
68440;BMP180;55421;51.600;5.718;2022-07-05T10:50:59;81582.60;;;24.80
68440;BMP180;55421;51.600;5.718;2022-07-05T10:53:28;81715.00;;;24.74
68440;BMP180;55421;51.600;5.718;2022-07-05T10:58:38;81997.00;;;25.00
68440;BMP180;55421;51.600;5.718;2022-07-05T11:03:53;82641.80;;;25.50
68440;BMP180;55421;51.600;5.718;2022-07-05T11:06:31;81850.20;;;25.60
68440;BMP180;55421;51.600;5.718;2022-07-05T11:11:35;81630.00;;;25.70
68440;BMP180;55421;51.600;5.718;2022-07-05T11:17:19;80757.60;;;25.60
68440;BMP180;55421;51.600;5.718;2022-07-05T11:22:25;83154.40;;;25.60
68440;BMP180;55421;51.600;5.718;2022-07-05T11:24:51;83061.20;;;25.70
68440;BMP180;55421;51.600;5.718;2022-07-05T11:27:18;82631.80;;;25.66
68440;BMP180;55421;51.600;5.718;2022-07-05T11:29:48;82833.20;;;25.40
68440;BMP180;55421;51.600;5.718;2022-07-05T11:32:38;84295.00;;;25.50
68440;BMP180;55421;51.600;5.718;2022-07-05T11:35:16;82801.80;;;25.70
68440;BMP180;55421;51.600;5.718;2022-07-05T11:38:03;81864.20;;;25.70
68440;BMP180;55421;51.600;5.718;2022-07-05T11:40:33;82955.80;;;25.70
68440;BMP180;55421;51.600;5.718;2022-07-05T11:43:01;82251.40;;;25.28
68440;BMP180;55421;51.600;5.718;2022-07-05T11:45:30;82655.40;;;24.74
68440;BMP180;55421;51.600;5.718;2022-07-05T11:47:57;82456.40;;;24.14
68440;BMP180;55421;51.600;5.718;2022-07-05T11:50:33;82171.80;;;23.84
68440;BMP180;55421;51.600;5.718;2022-07-05T11:53:00;81026.60;;;23.50
68440;BMP180;55421;51.600;5.718;2022-07-05T11:55:28;81160.00;;;23.30
68440;BMP180;55421;51.600;5.718;2022-07-05T11:57:58;82077.00;;;23.24
68440;BMP180;55421;51.600;5.718;2022-07-05T12:00:36;81200.40;;;23.20
68440;BMP180;55421;51.600;5.718;2022-07-05T12:03:13;81942.40;;;23.18
68440;BMP180;55421;51.600;5.718;2022-07-05T12:05:40;81372.60;;;23.20
68440;BMP180;55421;51.600;5.718;2022-07-05T12:08:06;81038.40;;;23.30
68440;BMP180;55421;51.600;5.718;2022-07-05T12:10:33;81749.60;;;23.50
68440;BMP180;55421;51.600;5.718;2022-07-05T12:13:18;81045.40;;;23.90
68440;BMP180;55421;51.600;5.718;2022-07-05T12:15:44;80757.80;;;24.20
68440;BMP180;55421;51.600;5.718;2022-07-05T12:18:12;82032.60;;;24.42
68440;BMP180;55421;51.600;5.718;2022-07-05T12:20:40;82700.60;;;24.60
68440;BMP180;55421;51.600;5.718;2022-07-05T12:23:07;81924.80;;;24.60
68440;BMP180;55421;51.600;5.718;2022-07-05T12:25:35;82097.40;;;24.40
68440;BMP180;55421;51.600;5.718;2022-07-05T12:28:03;81770.60;;;24.30
68440;BMP180;55421;51.600;5.718;2022-07-05T12:30:33;82439.00;;;24.20
68440;BMP180;55421;51.600;5.718;2022-07-05T12:33:09;82366.00;;;24.10
68440;BMP180;55421;51.600;5.718;2022-07-05T12:35:42;82390.40;;;24.10
68440;BMP180;55421;51.600;5.718;2022-07-05T12:38:13;80733.20;;;24.10
68440;BMP180;55421;51.600;5.718;2022-07-05T12:40:56;81622.80;;;24.20
68440;BMP180;55421;51.600;5.718;2022-07-05T12:43:24;82603.00;;;24.20
68440;BMP180;55421;51.600;5.718;2022-07-05T12:46:07;83060.60;;;24.40
68440;BMP180;55421;51.600;5.718;2022-07-05T12:48:37;82281.60;;;24.68
68440;BMP180;55421;51.600;5.718;2022-07-05T12:51:07;82955.40;;;24.80
68440;BMP180;55421;51.600;5.718;2022-07-05T12:53:34;82452.00;;;24.88
68440;BMP180;55421;51.600;5.718;2022-07-05T12:56:28;83655.00;;;24.96
68440;BMP180;55421;51.600;5.718;2022-07-05T12:59:13;82793.60;;;25.00
68440;BMP180;55421;51.600;5.718;2022-07-05T13:01:42;82920.60;;;24.90
68440;BMP180;55421;51.600;5.718;2022-07-05T13:04:15;83063.40;;;24.76
68440;BMP180;55421;51.600;5.718;2022-07-05T13:14:42;83477.20;;;24.70
68440;BMP180;55421;51.600;5.718;2022-07-05T13:17:11;82619.60;;;24.80
68440;BMP180;55421;51.600;5.718;2022-07-05T13:19:43;83306.00;;;24.60
68440;BMP180;55421;51.600;5.718;2022-07-05T13:22:10;82312.60;;;24.34
68440;BMP180;55421;51.600;5.718;2022-07-05T13:24:37;83444.40;;;24.20
68440;BMP180;55421;51.600;5.718;2022-07-05T13:27:06;83077.80;;;24.10
68440;BMP180;55421;51.600;5.718;2022-07-05T13:29:32;83542.80;;;24.02
68440;BMP180;55421;51.600;5.718;2022-07-05T13:31:59;83749.40;;;24.10
68440;BMP180;55421;51.600;5.718;2022-07-05T13:34:25;83523.40;;;24.20
68440;BMP180;55421;51.600;5.718;2022-07-05T13:36:53;84214.60;;;24.30
68440;BMP180;55421;51.600;5.718;2022-07-05T13:39:22;82417.20;;;24.30
68440;BMP180;55421;51.600;5.718;2022-07-05T13:41:52;83087.20;;;24.46
68440;BMP180;55421;51.600;5.718;2022-07-05T13:44:19;84884.20;;;24.50
68440;BMP180;55421;51.600;5.718;2022-07-05T13:47:25;83031.60;;;24.50
68440;BMP180;55421;51.600;5.718;2022-07-05T13:49:51;84048.40;;;24.44
68440;BMP180;55421;51.600;5.718;2022-07-05T13:52:37;83694.80;;;24.30
68440;BMP180;55421;51.600;5.718;2022-07-05T13:55:04;83142.40;;;24.30
68440;BMP180;55421;51.600;5.718;2022-07-05T13:57:31;83116.80;;;24.20
68440;BMP180;55421;51.600;5.718;2022-07-05T13:59:59;84417.00;;;24.30
68440;BMP180;55421;51.600;5.718;2022-07-05T14:02:26;83987.60;;;24.40
68440;BMP180;55421;51.600;5.718;2022-07-05T14:04:52;83886.60;;;24.40
68440;BMP180;55421;51.600;5.718;2022-07-05T14:07:18;83379.80;;;24.50
68440;BMP180;55421;51.600;5.718;2022-07-05T14:09:45;84567.40;;;24.36
68440;BMP180;55421;51.600;5.718;2022-07-05T14:12:11;82168.60;;;24.20
68440;BMP180;55421;51.600;5.718;2022-07-05T14:14:38;83635.40;;;24.10
68440;BMP180;55421;51.600;5.718;2022-07-05T14:17:04;83262.60;;;23.82
68440;BMP180;55421;51.600;5.718;2022-07-05T14:19:30;84078.60;;;23.70
68440;BMP180;55421;51.600;5.718;2022-07-05T14:21:57;84074.40;;;23.60
68440;BMP180;55421;51.600;5.718;2022-07-05T14:24:23;83645.00;;;23.60
68440;BMP180;55421;51.600;5.718;2022-07-05T14:26:50;83282.20;;;23.60
68440;BMP180;55421;51.600;5.718;2022-07-05T14:29:16;83256.80;;;23.70
68440;BMP180;55421;51.600;5.718;2022-07-05T14:31:42;83674.80;;;23.70
68440;BMP180;55421;51.600;5.718;2022-07-05T14:34:09;83557.60;;;23.70
68440;BMP180;55421;51.600;5.718;2022-07-05T14:36:35;82986.40;;;23.70
68440;BMP180;55421;51.600;5.718;2022-07-05T14:39:01;84454.40;;;23.68
68440;BMP180;55421;51.600;5.718;2022-07-05T14:41:28;84110.00;;;23.60
68440;BMP180;55421;51.600;5.718;2022-07-05T14:43:55;85017.00;;;23.50
68440;BMP180;55421;51.600;5.718;2022-07-05T14:46:21;84398.40;;;23.40
68440;BMP180;55421;51.600;5.718;2022-07-05T14:48:48;84068.20;;;23.20
68440;BMP180;55421;51.600;5.718;2022-07-05T14:51:15;85014.00;;;23.10
68440;BMP180;55421;51.600;5.718;2022-07-05T14:53:42;85339.40;;;23.00
68440;BMP180;55421;51.600;5.718;2022-07-05T14:56:11;85884.60;;;22.90